Agate Beach, Oregon
Current Conditions -  °F | °C
As of 5:15 AM on Thursday 30 Oct 2014 (Local Time) from KONP Reporting Station
Light Rain Light Rain  
Wind Chill: 57°   Ceiling: 1700
Heat Index: 57°   Visibility: 7mi
Dew Point: 55°   Wind: 6mph
Humidity: 94%   Direction: 120°ESE
Pressure: 29.89"   Gusts: NA
Location:  44.6805°N, 124.021°W
Report Text: KONP 301215Z AUTO 12005KT 7SM -RA SCT008 BKN017 OVC035 14/13 A2989 RMK AO2 P0001
Loading
Personal Weather Stations






























Interactive Weather Map
Tropical Storm Tracking
New forecast layout! Learn more

10-Day Weather Forecast

Advertisements
Track Severe Weather on mobile